Time;durP1;ratioP1;P1;durP2;ratioP2;P2;SDS_P1;SDS_P2;PMS_P1;PMS_P2;Temp;Humidity;BMP_temperature;BMP_pressure;BME280_temperature;BME280_humidity;BME280_pressure;Samples;Min_cycle;Max_cycle;Signal;HPM_P1;HPM_P2
2023/01/03 00:00:35;;;;;;;13.98;12.60;;;4.30;99.90;;;;;;4982490;28;90546;-32
2023/01/03 00:03:01;;;;;;;24.05;14.27;;;4.30;99.90;;;;;;5000436;28;89166;-32
2023/01/03 00:05:27;;;;;;;17.48;12.25;;;4.30;99.90;;;;;;4999844;28;89683;-33
2023/01/03 00:07:53;;;;;;;19.75;14.25;;;4.30;99.90;;;;;;5001147;28;89534;-33
2023/01/03 00:10:19;;;;;;;17.75;13.15;;;4.20;99.90;;;;;;5000648;28;89725;-32
2023/01/03 00:12:44;;;;;;;18.10;12.82;;;4.20;99.90;;;;;;5000648;28;90036;-33
2023/01/03 00:15:10;;;;;;;23.88;14.07;;;4.20;99.90;;;;;;5000237;28;89199;-32
2023/01/03 00:17:35;;;;;;;24.63;14.60;;;4.20;99.90;;;;;;5000793;28;88950;-36
2023/01/03 00:20:01;;;;;;;15.65;13.15;;;4.20;99.90;;;;;;5000753;28;89808;-31
2023/01/03 00:22:30;;;;;;;20.65;15.00;;;4.20;99.90;;;;;;4999613;28;92102;-32
2023/01/03 00:24:56;;;;;;;26.70;14.50;;;4.10;99.90;;;;;;4999952;28;90684;-32
2023/01/03 00:27:21;;;;;;;17.45;14.05;;;4.10;99.90;;;;;;5000927;28;88240;-34
2023/01/03 00:29:47;;;;;;;19.75;14.93;;;4.10;99.90;;;;;;4999283;28;90315;-33
2023/01/03 00:32:13;;;;;;;29.23;16.23;;;4.00;99.90;;;;;;5000154;28;89642;-32
2023/01/03 00:34:38;;;;;;;20.90;15.82;;;4.00;99.90;;;;;;4999655;28;90961;-33
2023/01/03 00:37:04;;;;;;;15.90;13.75;;;4.00;99.90;;;;;;4985816;28;88762;-34
2023/01/03 00:39:30;;;;;;;24.45;15.93;;;4.00;99.90;;;;;;5000442;28;90278;-31
2023/01/03 00:41:55;;;;;;;22.75;14.40;;;3.90;99.90;;;;;;4999197;28;89146;-31
2023/01/03 00:44:21;;;;;;;23.17;16.15;;;3.90;99.90;;;;;;5000162;28;89453;-34
2023/01/03 00:46:47;;;;;;;22.50;16.02;;;3.90;99.90;;;;;;4999521;28;88112;-36
2023/01/03 00:49:12;;;;;;;22.23;15.07;;;3.90;99.90;;;;;;4982532;28;90565;-36
2023/01/03 00:51:40;;;;;;;19.65;15.23;;;3.90;99.90;;;;;;5000246;28;88749;-34
2023/01/03 00:54:07;;;;;;;22.83;16.42;;;3.90;99.90;;;;;;4999476;28;90221;-33
2023/01/03 00:56:39;;;;;;;21.77;14.80;;;3.90;99.90;;;;;;5000187;28;88424;-34
2023/01/03 00:59:05;;;;;;;22.90;15.40;;;3.90;99.90;;;;;;4999847;28;90906;-34
2023/01/03 01:01:37;;;;;;;20.27;15.73;;;3.90;99.90;;;;;;5000043;28;89527;-34
2023/01/03 01:04:07;;;;;;;22.15;16.20;;;3.80;99.90;;;;;;4999614;28;89317;-35
2023/01/03 01:06:37;;;;;;;23.63;14.88;;;3.80;99.90;;;;;;4999759;28;88452;-35
2023/01/03 01:09:05;;;;;;;20.55;13.88;;;3.80;99.90;;;;;;4999565;28;90666;-34
2023/01/03 01:11:31;;;;;;;17.70;15.02;;;3.70;99.90;;;;;;4999185;28;90461;-33
2023/01/03 01:13:57;;;;;;;17.33;14.77;;;3.70;99.90;;;;;;4999624;28;90370;-33
2023/01/03 01:16:28;;;;;;;21.33;16.52;;;3.70;99.90;;;;;;4999160;28;88394;-34
2023/01/03 01:18:54;;;;;;;20.50;16.48;;;3.60;99.90;;;;;;4999346;28;91958;-35
2023/01/03 01:21:26;;;;;;;26.80;15.90;;;3.60;99.90;;;;;;4999381;28;89700;-34
2023/01/03 01:23:52;;;;;;;23.27;17.00;;;3.60;99.90;;;;;;4999550;28;88944;-33
2023/01/03 01:26:20;;;;;;;26.95;16.20;;;3.60;99.90;;;;;;4999695;28;89072;-33
2023/01/03 01:28:47;;;;;;;19.42;16.00;;;3.60;99.90;;;;;;4999821;28;89946;-33
2023/01/03 01:31:15;;;;;;;25.63;16.90;;;3.60;99.90;;;;;;4998406;28;90661;-35
2023/01/03 01:33:41;;;;;;;;;;;3.60;99.90;;;;;;4999611;28;89175;-34
2023/01/03 01:36:15;;;;;;;20.85;15.50;;;3.60;99.90;;;;;;5000938;28;90116;-32
2023/01/03 01:38:40;;;;;;;26.95;18.30;;;3.60;99.90;;;;;;4981243;28;90395;-33
2023/01/03 01:41:06;;;;;;;24.42;16.45;;;3.50;99.90;;;;;;4999453;28;89937;-34
2023/01/03 01:46:26;;;;;;;21.13;17.02;;;3.50;99.90;;;;;;4999788;28;89504;-37
2023/01/03 01:48:59;;;;;;;26.25;16.52;;;3.50;99.90;;;;;;4999250;28;91003;-34
2023/01/03 01:51:29;;;;;;;21.98;17.13;;;3.50;99.90;;;;;;4998486;28;88826;-36
2023/01/03 01:53:56;;;;;;;22.95;17.98;;;3.50;99.90;;;;;;4998706;28;88689;-36
2023/01/03 01:56:28;;;;;;;27.98;18.30;;;3.50;99.90;;;;;;4999168;28;89982;-36
2023/01/03 01:58:54;;;;;;;20.30;17.42;;;3.50;99.90;;;;;;4998999;28;89299;-34
2023/01/03 02:01:21;;;;;;;22.13;18.67;;;3.50;99.90;;;;;;4998935;28;90924;-34
2023/01/03 02:03:55;;;;;;;27.23;18.02;;;3.50;99.90;;;;;;4998457;28;90703;-33
2023/01/03 02:06:22;;;;;;;25.35;17.73;;;3.50;99.90;;;;;;4998923;28;87670;-34
2023/01/03 02:08:47;;;;;;;25.88;18.73;;;3.60;99.90;;;;;;4999201;28;89854;-33
2023/01/03 02:11:35;;;;;;;28.48;17.33;;;3.60;99.90;;;;;;4980117;28;89216;-33
2023/01/03 02:14:13;;;;;;;23.60;18.73;;;3.60;99.90;;;;;;4998182;28;89614;-37
2023/01/03 02:17:00;;;;;;;24.17;18.17;;;3.60;99.90;;;;;;4998774;28;88946;-34
2023/01/03 02:19:58;;;;;;;22.05;17.92;;;3.60;99.90;;;;;;4998983;28;89867;-34
2023/01/03 02:22:48;;;;;;;26.08;20.05;;;3.50;99.90;;;;;;4999053;28;90049;-33
2023/01/03 02:25:45;;;;;;;23.60;16.98;;;3.50;99.90;;;;;;4987695;28;89655;-35
2023/01/03 02:28:41;;;;;;;25.35;19.27;;;3.50;99.90;;;;;;4998262;28;90081;-36
2023/01/03 02:31:30;;;;;;;28.42;18.10;;;3.40;99.90;;;;;;4998182;28;90269;-34
2023/01/03 02:34:15;;;;;;;19.98;16.75;;;3.40;99.90;;;;;;4998906;28;89573;-34
2023/01/03 02:37:03;;;;;;;17.83;16.02;;;3.40;99.90;;;;;;4997735;28;90187;-34
2023/01/03 02:40:09;;;;;;;22.63;15.98;;;3.40;99.90;;;;;;4998498;28;89194;-33
2023/01/03 02:43:04;;;;;;;26.67;19.13;;;3.40;99.90;;;;;;4986769;28;91896;-34
2023/01/03 02:45:48;;;;;;;21.27;18.63;;;3.30;99.90;;;;;;4997796;28;89748;-34
2023/01/03 02:48:24;;;;;;;29.15;18.27;;;3.30;99.90;;;;;;4999081;28;88059;-33
2023/01/03 02:50:54;;;;;;;32.20;18.17;;;3.30;99.90;;;;;;4997694;28;88816;-35
2023/01/03 02:53:30;;;;;;;22.23;18.65;;;3.30;99.90;;;;;;4997710;28;90147;-36
2023/01/03 02:56:03;;;;;;;34.25;18.67;;;3.30;99.90;;;;;;4997374;28;89388;-36
2023/01/03 02:58:32;;;;;;;28.27;18.33;;;3.30;99.90;;;;;;4998245;28;92075;-34
2023/01/03 03:01:00;;;;;;;25.65;18.35;;;3.40;99.90;;;;;;4997927;28;88692;-35
2023/01/03 03:03:31;;;;;;;26.80;18.15;;;3.30;99.90;;;;;;4997862;28;89932;-33
2023/01/03 03:06:13;;;;;;;29.33;18.65;;;3.30;99.90;;;;;;4997455;28;89813;-36
2023/01/03 03:08:42;;;;;;;22.20;18.90;;;3.20;99.90;;;;;;4998037;28;89441;-32
2023/01/03 03:14:04;;;;;;;28.15;18.17;;;3.20;99.90;;;;;;4999816;28;90772;-34
2023/01/03 03:16:48;;;;;;;28.10;18.83;;;3.20;99.90;;;;;;4998242;28;90531;-34
2023/01/03 03:24:48;;;;;;;24.98;18.60;;;3.10;99.90;;;;;;4997973;28;89646;-33
2023/01/03 03:24:51;;;;;;;29.67;19.50;;;3.10;99.90;;;;;;4998227;28;90039;-34
2023/01/03 03:30:09;;;;;;;24.20;17.73;;;3.10;99.90;;;;;;4999734;28;89333;-32
2023/01/03 03:32:38;;;;;;;25.73;19.00;;;3.10;99.90;;;;;;4999560;28;89489;-32
2023/01/03 03:35:07;;;;;;;26.13;20.05;;;3.10;99.90;;;;;;5000850;28;90046;-33
2023/01/03 03:37:36;;;;;;;27.30;19.38;;;3.10;99.90;;;;;;5000762;28;89979;-34
2023/01/03 03:46:28;;;;;;;27.98;21.70;;;3.00;99.90;;;;;;5000462;28;90049;-35
2023/01/03 03:51:58;;;;;;;31.75;21.80;;;3.00;99.90;;;;;;5000729;28;90101;-32
2023/01/03 03:54:27;;;;;;;29.17;20.35;;;3.00;99.90;;;;;;5000920;28;89377;-36
2023/01/03 03:56:59;;;;;;;29.10;21.30;;;2.90;99.90;;;;;;5000332;28;90094;-34
2023/01/03 03:59:27;;;;;;;31.85;20.30;;;2.80;99.90;;;;;;5000854;28;89685;-33
2023/01/03 04:01:54;;;;;;;;;;;2.80;99.90;;;;;;5000485;28;89193;-33
2023/01/03 04:04:27;;;;;;;27.10;21.65;;;2.80;99.90;;;;;;5003626;28;88363;-33
2023/01/03 04:06:53;;;;;;;28.65;20.58;;;2.70;99.90;;;;;;5000522;28;89778;-35
2023/01/03 04:09:19;;;;;;;27.38;22.23;;;2.70;99.90;;;;;;5000280;28;89041;-34
2023/01/03 04:11:45;;;;;;;27.73;21.45;;;2.70;99.90;;;;;;4999939;28;90897;-35
2023/01/03 04:14:10;;;;;;;28.92;21.17;;;2.60;99.90;;;;;;5000652;28;90197;-33
2023/01/03 04:16:36;;;;;;;26.83;20.85;;;2.60;99.90;;;;;;5001253;28;90557;-34
2023/01/03 04:19:03;;;;;;;28.70;21.88;;;2.60;99.90;;;;;;5000379;28;89384;-34
2023/01/03 04:21:29;;;;;;;29.60;20.60;;;2.60;99.90;;;;;;5000133;28;89553;-33
2023/01/03 04:23:54;;;;;;;30.38;22.02;;;2.60;99.90;;;;;;5000787;28;89060;-34
2023/01/03 04:26:20;;;;;;;29.42;22.13;;;2.60;99.90;;;;;;5000477;28;90239;-31
2023/01/03 04:28:46;;;;;;;29.40;23.75;;;2.60;99.90;;;;;;5001232;28;89641;-31
2023/01/03 04:31:11;;;;;;;32.25;24.40;;;2.60;99.90;;;;;;5000668;28;89129;-32
2023/01/03 04:33:37;;;;;;;37.00;23.98;;;2.60;99.90;;;;;;5000856;28;90143;-33
2023/01/03 04:36:03;;;;;;;39.72;24.42;;;2.70;99.90;;;;;;4998980;28;90291;-31
2023/01/03 04:38:28;;;;;;;35.75;24.95;;;2.70;99.90;;;;;;4999993;28;90480;-34
2023/01/03 04:40:54;;;;;;;37.20;26.48;;;2.70;99.90;;;;;;5000800;28;89234;-31
2023/01/03 04:46:04;;;;;;;35.10;26.15;;;2.70;99.90;;;;;;5000223;28;89424;-31
2023/01/03 04:48:29;;;;;;;40.05;28.90;;;2.70;99.90;;;;;;5000002;28;89583;-31
2023/01/03 04:50:57;;;;;;;36.65;25.45;;;2.70;99.90;;;;;;5000576;28;89648;-32
2023/01/03 04:53:24;;;;;;;34.67;24.60;;;2.60;99.90;;;;;;5000515;28;88892;-35
2023/01/03 04:55:52;;;;;;;34.97;24.60;;;2.60;99.90;;;;;;4999737;28;90595;-32
2023/01/03 04:58:18;;;;;;;35.58;26.58;;;2.60;99.90;;;;;;4999703;28;89569;-31
2023/01/03 05:00:44;;;;;;;29.83;25.05;;;2.60;99.90;;;;;;4999826;28;89756;-34
2023/01/03 05:03:10;;;;;;;39.05;25.80;;;2.60;99.90;;;;;;4999583;28;90100;-33
2023/01/03 05:05:37;;;;;;;34.40;25.42;;;2.60;99.90;;;;;;4999447;28;90240;-34
2023/01/03 05:08:04;;;;;;;38.03;28.45;;;2.60;99.90;;;;;;5000962;28;89167;-31
2023/01/03 05:10:30;;;;;;;37.15;26.08;;;2.50;99.90;;;;;;4999393;28;89417;-31
2023/01/03 05:12:59;;;;;;;30.38;25.55;;;2.50;99.90;;;;;;4999611;28;89685;-31
2023/01/03 05:15:26;;;;;;;37.90;27.88;;;2.50;99.90;;;;;;4999301;28;90139;-34
2023/01/03 05:17:52;;;;;;;39.53;27.50;;;2.50;99.90;;;;;;5000589;28;89801;-35
2023/01/03 05:25:50;;;;;;;43.13;30.88;;;2.50;99.90;;;;;;4999332;28;90358;-33
2023/01/03 05:28:17;;;;;;;47.22;31.20;;;2.50;99.90;;;;;;4999289;28;89234;-35
2023/01/03 05:30:42;;;;;;;42.35;30.40;;;2.50;99.90;;;;;;4999567;28;89895;-32
2023/01/03 05:33:08;;;;;;;44.15;31.23;;;2.60;99.90;;;;;;4999975;28;89319;-32
2023/01/03 05:35:34;;;;;;;46.25;32.25;;;2.60;99.90;;;;;;4998134;28;90715;-34
2023/01/03 05:37:59;;;;;;;40.75;30.67;;;2.60;99.90;;;;;;4998798;28;89792;-34
2023/01/03 05:40:25;;;;;;;40.20;30.33;;;2.70;99.90;;;;;;4998702;28;89575;-33
2023/01/03 05:42:50;;;;;;;41.63;29.52;;;2.70;99.90;;;;;;4999835;28;88925;-32
2023/01/03 05:45:16;;;;;;;44.70;32.30;;;2.70;99.90;;;;;;4999750;28;90193;-31
2023/01/03 05:47:42;;;;;;;49.20;30.83;;;2.70;99.90;;;;;;4998301;28;89712;-31
2023/01/03 05:50:07;;;;;;;45.45;34.25;;;2.70;99.90;;;;;;4999461;28;89267;-33
2023/01/03 05:52:33;;;;;;;40.45;30.10;;;2.80;99.90;;;;;;4998210;28;90526;-33
2023/01/03 05:54:59;;;;;;;45.00;33.15;;;2.80;99.90;;;;;;4998533;28;89072;-32
2023/01/03 05:57:24;;;;;;;45.72;34.13;;;2.80;99.90;;;;;;4999119;28;91062;-32
2023/01/03 05:59:50;;;;;;;48.90;33.42;;;2.80;99.90;;;;;;4998219;28;89678;-32
2023/01/03 06:02:16;;;;;;;40.17;29.83;;;2.80;99.90;;;;;;4999386;28;89307;-34
2023/01/03 06:04:41;;;;;;;45.17;32.40;;;2.80;99.90;;;;;;4998187;28;90086;-34
2023/01/03 06:07:07;;;;;;;39.13;30.17;;;2.70;99.90;;;;;;4999557;28;89541;-34
2023/01/03 06:09:32;;;;;;;48.60;33.80;;;2.80;99.90;;;;;;4999181;28;89423;-34
2023/01/03 06:11:58;;;;;;;44.90;32.55;;;2.70;99.90;;;;;;4998157;28;88842;-32
2023/01/03 06:14:23;;;;;;;41.75;31.88;;;2.70;99.90;;;;;;4999214;28;90586;-31
2023/01/03 06:19:33;;;;;;;45.97;33.50;;;2.70;99.90;;;;;;4999281;28;90801;-35
2023/01/03 06:21:59;;;;;;;41.00;31.98;;;2.70;99.90;;;;;;4998537;28;88790;-31
2023/01/03 06:24:24;;;;;;;46.63;34.88;;;2.70;99.90;;;;;;4998827;28;90231;-33
2023/01/03 06:26:50;;;;;;;45.50;33.25;;;2.70;99.90;;;;;;4998255;28;89923;-33
2023/01/03 06:29:16;;;;;;;43.67;33.13;;;2.60;99.90;;;;;;4998676;28;89607;-33
2023/01/03 06:31:41;;;;;;;40.45;33.28;;;2.60;99.90;;;;;;4998771;28;89474;-32
2023/01/03 06:34:07;;;;;;;42.55;32.72;;;2.60;99.90;;;;;;4997298;28;89901;-33
2023/01/03 06:36:33;;;;;;;49.97;33.10;;;2.60;99.90;;;;;;4997869;28;89392;-35
2023/01/03 06:39:00;;;;;;;43.33;31.92;;;2.60;99.90;;;;;;4997750;28;90270;-32
2023/01/03 06:41:25;;;;;;;43.03;32.83;;;2.50;99.90;;;;;;4998187;28;90058;-31
2023/01/03 06:43:53;;;;;;;48.13;36.55;;;2.50;99.90;;;;;;4998707;28;90313;-32
2023/01/03 06:54:35;;;;;;;45.72;34.80;;;2.50;99.90;;;;;;4998140;28;89018;-32
2023/01/03 06:57:01;;;;;;;50.07;33.43;;;2.40;99.90;;;;;;4997722;28;89349;-34
2023/01/03 06:59:27;;;;;;;52.45;33.17;;;2.40;99.90;;;;;;4998397;28;89275;-32
2023/01/03 07:01:54;;;;;;;49.75;35.40;;;2.50;99.90;;;;;;4997590;28;88040;-33
2023/01/03 07:04:22;;;;;;;47.50;38.47;;;2.40;99.90;;;;;;4998311;28;90442;-32
2023/01/03 07:06:47;;;;;;;51.80;38.57;;;2.40;99.90;;;;;;4998909;28;90743;-31
2023/01/03 07:09:13;;;;;;;54.22;37.25;;;2.40;99.90;;;;;;5001337;28;90225;-32
2023/01/03 07:11:40;;;;;;;46.80;34.33;;;2.40;99.90;;;;;;5001678;28;89017;-33
2023/01/03 07:14:07;;;;;;;41.28;33.72;;;2.30;99.90;;;;;;5001690;28;90007;-31
2023/01/03 07:16:35;;;;;;;40.30;32.63;;;2.30;99.90;;;;;;5001626;28;88507;-32
2023/01/03 07:19:03;;;;;;;49.05;32.17;;;2.30;99.90;;;;;;5001236;28;89377;-32
2023/01/03 07:21:31;;;;;;;55.83;30.40;;;2.30;99.90;;;;;;5001297;28;88345;-34
2023/01/03 07:24:00;;;;;;;79.72;26.95;;;2.30;99.90;;;;;;5001032;28;90132;-34
2023/01/03 07:26:29;;;;;;;96.32;27.63;;;2.20;99.90;;;;;;5001952;28;89672;-33
2023/01/03 07:28:55;;;;;;;86.93;27.55;;;2.30;99.90;;;;;;5001791;28;89175;-33
2023/01/03 07:31:21;;;;;;;119.25;32.72;;;2.10;99.90;;;;;;5000848;28;88457;-32
2023/01/03 07:33:46;;;;;;;113.50;29.55;;;2.00;99.90;;;;;;5000836;28;90359;-34
2023/01/03 07:36:14;;;;;;;119.05;29.10;;;2.00;99.90;;;;;;5000800;28;89390;-32
2023/01/03 07:38:42;;;;;;;90.23;26.80;;;2.00;99.90;;;;;;5001112;28;89398;-32
2023/01/03 07:41:08;;;;;;;108.07;26.63;;;2.00;99.90;;;;;;5001328;28;88999;-34
2023/01/03 07:43:37;;;;;;;118.72;30.02;;;2.00;99.90;;;;;;5001185;28;90481;-33
2023/01/03 07:46:23;;;;;;;113.70;28.95;;;2.00;99.90;;;;;;5001336;28;88659;-32
2023/01/03 07:48:50;;;;;;;61.80;25.70;;;2.00;99.90;;;;;;5000900;28;90604;-33
2023/01/03 07:51:18;;;;;;;106.53;32.87;;;2.00;99.90;;;;;;5001247;28;89282;-33
2023/01/03 07:53:44;;;;;;;133.35;34.78;;;2.00;99.90;;;;;;4999205;28;90294;-32
2023/01/03 07:56:15;;;;;;;88.78;26.48;;;2.10;99.90;;;;;;4999353;28;91088;-31
2023/01/03 07:58:43;;;;;;;56.80;25.23;;;2.10;99.90;;;;;;4998829;28;90602;-32
2023/01/03 08:01:11;;;;;;;80.23;29.97;;;2.10;99.90;;;;;;5000240;28;87566;-33
2023/01/03 08:03:37;;;;;;;170.02;36.30;;;2.10;99.90;;;;;;4999458;28;90186;-35
2023/01/03 08:06:06;;;;;;;206.63;44.72;;;2.20;99.90;;;;;;5000466;28;89247;-34
2023/01/03 08:08:31;;;;;;;120.47;31.92;;;2.20;99.90;;;;;;4992725;28;88932;-34
2023/01/03 08:13:42;;;;;;;143.93;34.88;;;2.30;99.90;;;;;;4994729;28;89890;-32
2023/01/03 08:16:10;;;;;;;99.63;30.48;;;2.40;99.90;;;;;;5000360;28;89790;-33
2023/01/03 08:18:37;;;;;;;86.37;28.07;;;2.40;99.90;;;;;;4999329;28;91469;-33
2023/01/03 08:21:03;;;;;;;111.75;32.15;;;2.40;99.90;;;;;;4999597;28;89738;-31
2023/01/03 08:23:29;;;;;;;89.72;34.78;;;2.50;99.90;;;;;;5000555;28;89818;-34
2023/01/03 08:26:03;;;;;;;39.00;26.15;;;2.60;99.90;;;;;;5000507;28;89444;-32
2023/01/03 08:28:29;;;;;;;116.90;36.53;;;2.60;99.90;;;;;;5001416;28;89944;-31
2023/01/03 08:30:56;;;;;;;76.80;33.75;;;2.70;99.90;;;;;;4999956;28;88412;-31
2023/01/03 08:33:22;;;;;;;135.38;40.42;;;2.70;99.90;;;;;;4999508;28;90192;-31
2023/01/03 08:35:56;;;;;;;90.28;36.03;;;2.80;99.90;;;;;;4999648;28;89842;-32
2023/01/03 08:38:27;;;;;;;81.82;36.60;;;2.90;99.90;;;;;;4987365;28;89800;-33
2023/01/03 08:40:54;;;;;;;106.60;38.03;;;2.90;99.90;;;;;;4994271;28;88376;-33
2023/01/03 08:43:20;;;;;;;75.97;37.42;;;3.00;99.90;;;;;;5000004;28;89685;-32
2023/01/03 08:45:47;;;;;;;59.13;33.90;;;3.10;99.90;;;;;;4999039;28;90385;-31
2023/01/03 08:48:15;;;;;;;96.80;41.67;;;3.10;99.90;;;;;;5000222;28;89958;-31
2023/01/03 08:50:40;;;;;;;78.63;39.90;;;3.20;99.90;;;;;;4999135;28;89356;-33
2023/01/03 08:53:06;;;;;;;79.97;41.58;;;3.20;99.90;;;;;;5000673;28;91275;-32
2023/01/03 08:55:33;;;;;;;71.15;41.47;;;3.30;99.90;;;;;;4999957;28;90784;-33
2023/01/03 08:57:59;;;;;;;81.50;42.42;;;3.40;99.90;;;;;;4999975;28;89778;-32
2023/01/03 09:00:25;;;;;;;66.53;43.17;;;3.50;99.90;;;;;;4999741;28;88329;-34
2023/01/03 09:02:51;;;;;;;68.60;45.05;;;3.50;99.90;;;;;;4999681;28;91399;-32
2023/01/03 09:05:17;;;;;;;82.10;49.55;;;3.60;99.90;;;;;;4999422;28;90237;-34
2023/01/03 09:07:43;;;;;;;69.97;41.38;;;3.60;99.90;;;;;;5000208;28;88991;-34
2023/01/03 09:10:09;;;;;;;74.18;41.92;;;3.70;99.90;;;;;;4998985;28;88978;-32
2023/01/03 09:12:34;;;;;;;90.40;47.25;;;3.70;99.90;;;;;;4998042;28;90285;-35
2023/01/03 09:15:00;;;;;;;82.60;45.70;;;3.80;99.90;;;;;;4996660;28;90583;-33
2023/01/03 09:17:27;;;;;;;79.45;44.55;;;3.80;99.90;;;;;;4997024;28;89218;-33
2023/01/03 09:19:52;;;;;;;69.78;43.72;;;3.90;99.90;;;;;;4997720;28;88508;-32
2023/01/03 09:22:18;;;;;;;79.22;48.20;;;4.00;99.90;;;;;;4997034;28;90188;-33
2023/01/03 09:24:44;;;;;;;70.72;48.30;;;4.00;99.90;;;;;;4996752;28;88552;-35
2023/01/03 09:27:09;;;;;;;74.32;45.53;;;4.00;99.90;;;;;;4996745;28;90639;-31
2023/01/03 09:29:35;;;;;;;69.38;45.00;;;4.10;99.90;;;;;;4997356;28;89802;-35
2023/01/03 09:32:02;;;;;;;66.65;41.88;;;4.10;99.90;;;;;;4997355;28;91652;-32
2023/01/03 09:34:28;;;;;;;65.03;42.58;;;4.10;99.90;;;;;;4996218;28;90732;-33
2023/01/03 09:36:53;;;;;;;68.60;45.50;;;4.20;99.90;;;;;;5007065;22;90486;-33
2023/01/03 09:39:20;;;;;;;78.28;47.10;;;4.30;99.90;;;;;;4958849;28;89185;-32
2023/01/03 09:43:11;;;;;;;70.45;44.83;;;4.30;99.90;;;;;;4957103;28;90271;-32
2023/01/03 09:44:35;;;;;;;66.38;46.10;;;4.40;99.90;;;;;;4957458;28;90308;-34
2023/01/03 09:47:01;;;;;;;71.10;45.50;;;4.50;99.90;;;;;;4958593;28;91264;-32
2023/01/03 09:49:27;;;;;;;68.03;42.40;;;4.50;99.90;;;;;;4977250;28;88597;-32
2023/01/03 10:03:43;;;;;;;74.60;45.85;;;4.70;99.90;;;;;;4956666;28;90195;-32
2023/01/03 10:06:34;;;;;;;67.45;46.53;;;4.70;99.90;;;;;;4969000;28;89519;-34
2023/01/03 10:09:17;;;;;;;70.15;48.22;;;4.70;99.90;;;;;;4958692;28;90524;-34
2023/01/03 10:12:10;;;;;;;74.22;48.83;;;4.70;99.90;;;;;;4957363;28;88368;-33
2023/01/03 10:14:54;;;;;;;64.43;47.50;;;4.70;99.90;;;;;;4962810;28;90197;-36
2023/01/03 10:17:33;;;;;;;74.78;49.75;;;4.70;99.90;;;;;;4972740;28;88365;-33
2023/01/03 10:20:13;;;;;;;82.75;52.08;;;4.70;99.90;;;;;;4959993;28;89438;-34
2023/01/03 10:22:40;;;;;;;75.43;51.33;;;4.70;99.90;;;;;;4961566;28;88573;-31
2023/01/03 10:25:16;;;;;;;73.40;48.08;;;4.70;99.90;;;;;;4956188;28;90379;-31
2023/01/03 10:27:45;;;;;;;66.85;47.00;;;4.80;99.90;;;;;;4955553;28;90815;-34
2023/01/03 10:30:20;;;;;;;72.57;49.22;;;4.80;99.90;;;;;;4956490;28;90415;-32
2023/01/03 10:33:08;;;;;;;66.80;48.00;;;4.80;99.90;;;;;;4959480;28;89543;-31
2023/01/03 10:35:35;;;;;;;65.50;45.05;;;4.90;99.90;;;;;;4963089;28;90276;-32
2023/01/03 10:38:01;;;;;;;70.22;46.75;;;4.90;99.90;;;;;;4955714;28;91746;-33
2023/01/03 10:40:41;;;;;;;74.90;48.35;;;5.00;99.90;;;;;;4956011;28;89178;-34
2023/01/03 10:43:31;;;;;;;74.18;48.90;;;5.00;99.90;;;;;;4939152;28;88434;-35
2023/01/03 10:45:59;;;;;;;73.20;49.20;;;5.00;99.90;;;;;;4955936;28;90212;-33
2023/01/03 10:48:32;;;;;;;65.85;45.83;;;5.10;99.90;;;;;;4956931;28;90640;-34
2023/01/03 10:50:58;;;;;;;80.57;50.88;;;5.10;99.90;;;;;;4957510;28;89518;-34
2023/01/03 10:53:24;;;;;;;71.25;49.03;;;5.10;99.90;;;;;;4955716;28;89614;-34
2023/01/03 10:55:53;;;;;;;74.55;50.45;;;5.20;99.90;;;;;;4967028;28;89735;-32
2023/01/03 10:58:27;;;;;;;71.78;49.45;;;5.20;99.90;;;;;;4956305;28;91135;-31
2023/01/03 11:01:08;;;;;;;71.22;49.45;;;5.30;99.90;;;;;;4958663;28;89044;-33
2023/01/03 11:03:34;;;;;;;77.25;51.55;;;5.30;99.90;;;;;;4965417;28;88651;-32
2023/01/03 11:05:59;;;;;;;67.13;48.45;;;5.40;99.90;;;;;;4955757;28;90460;-35
2023/01/03 11:08:43;;;;;;;68.68;48.58;;;5.50;99.90;;;;;;4972179;28;89794;-32
2023/01/03 11:11:32;;;;;;;65.70;44.85;;;5.60;99.90;;;;;;4967113;28;89647;-34
2023/01/03 11:14:25;;;;;;;66.68;47.47;;;5.70;99.90;;;;;;4969046;28;88847;-33
2023/01/03 11:16:59;;;;;;;73.82;46.95;;;5.70;99.90;;;;;;4952939;28;90758;-32
2023/01/03 11:19:27;;;;;;;63.70;43.55;;;5.80;99.90;;;;;;4955474;28;90736;-31
2023/01/03 11:22:13;;;;;;;51.65;38.67;;;5.80;99.90;;;;;;4968202;28;90122;-34
2023/01/03 11:25:05;;;;;;;67.85;46.28;;;5.80;99.90;;;;;;4954778;28;89303;-33
2023/01/03 11:27:50;;;;;;;60.08;41.13;;;5.90;99.90;;;;;;4966574;28;89449;-32
2023/01/03 11:30:29;;;;;;;55.80;43.13;;;6.00;99.90;;;;;;4974744;28;90882;-34
2023/01/03 11:33:08;;;;;;;55.42;39.78;;;6.10;99.90;;;;;;4974899;28;90206;-33
2023/01/03 11:35:43;;;;;;;55.50;43.35;;;6.10;99.90;;;;;;4962227;28;88291;-32
2023/01/03 11:38:18;;;;;;;46.75;37.30;;;6.10;99.90;;;;;;4955662;28;90514;-35
2023/01/03 11:41:10;;;;;;;57.88;41.35;;;6.10;99.90;;;;;;4967670;28;89504;-31
2023/01/03 11:44:12;;;;;;;62.10;41.05;;;6.20;99.90;;;;;;4967568;28;89679;-36
2023/01/03 11:47:05;;;;;;;65.35;42.00;;;6.20;99.90;;;;;;4955292;28;90203;-31
2023/01/03 11:49:49;;;;;;;51.70;37.97;;;6.10;99.90;;;;;;4963575;28;90004;-31
2023/01/03 11:52:31;;;;;;;46.70;36.20;;;6.20;99.90;;;;;;4957298;28;91183;-33
2023/01/03 11:55:02;;;;;;;51.50;37.95;;;6.20;99.90;;;;;;4957768;28;89741;-35
2023/01/03 11:57:53;;;;;;;49.90;38.88;;;6.20;99.90;;;;;;4958992;28;88470;-32
2023/01/03 12:00:33;;;;;;;48.15;36.22;;;6.20;99.90;;;;;;4957922;28;90234;-34
2023/01/03 12:03:24;;;;;;;54.95;37.58;;;6.30;99.90;;;;;;4939447;28;90974;-32
2023/01/03 12:06:19;;;;;;;44.47;32.75;;;6.30;99.90;;;;;;4958158;28;90273;-32
2023/01/03 12:09:20;;;;;;;43.42;34.95;;;6.30;99.90;;;;;;4967153;28;89714;-33
2023/01/03 12:12:13;;;;;;;42.95;33.60;;;6.30;99.90;;;;;;4890000;28;90211;-33
2023/01/03 12:14:52;;;;;;;44.35;30.33;;;6.30;99.90;;;;;;4963718;28;90180;-31
2023/01/03 12:17:33;;;;;;;40.15;31.55;;;6.30;99.90;;;;;;4958104;28;90226;-33
2023/01/03 12:20:10;;;;;;;38.92;28.90;;;6.30;99.90;;;;;;4957595;28;89966;-34
2023/01/03 12:22:38;;;;;;;30.08;24.48;;;6.30;99.90;;;;;;4957699;28;89113;-33
2023/01/03 12:25:22;;;;;;;36.05;27.48;;;6.40;99.90;;;;;;4957716;28;89149;-33
2023/01/03 12:27:54;;;;;;;29.75;23.15;;;6.40;99.90;;;;;;4957248;28;89784;-32
2023/01/03 12:30:27;;;;;;;27.77;23.90;;;6.40;99.90;;;;;;4958130;28;88256;-33
2023/01/03 12:33:06;;;;;;;29.10;23.30;;;6.50;99.90;;;;;;4971759;28;89621;-33
2023/01/03 12:35:41;;;;;;;33.63;24.70;;;6.50;99.90;;;;;;4964558;28;89734;-35
2023/01/03 12:38:09;;;;;;;33.15;22.23;;;6.60;99.90;;;;;;4971867;28;90449;-32
2023/01/03 12:40:54;;;;;;;26.45;22.17;;;6.60;99.90;;;;;;4967535;28;89777;-37
2023/01/03 12:43:29;;;;;;;37.47;25.10;;;6.60;99.90;;;;;;4957599;28;90556;-32
2023/01/03 12:46:10;;;;;;;29.83;23.70;;;6.60;99.90;;;;;;4957755;28;89792;-32
2023/01/03 12:48:44;;;;;;;34.97;24.08;;;6.60;99.90;;;;;;4970409;28;89099;-35
2023/01/03 12:51:12;;;;;;;28.75;23.08;;;6.70;99.90;;;;;;4957679;28;88367;-32
2023/01/03 12:54:04;;;;;;;;;;;6.60;99.90;;;;;;4957755;28;90386;-33
2023/01/03 12:57:16;;;;;;;29.25;22.20;;;6.60;99.90;;;;;;4954600;28;89401;-34
2023/01/03 12:59:44;;;;;;;31.52;22.70;;;6.70;99.90;;;;;;4887753;28;89639;-34
2023/01/03 13:02:39;;;;;;;27.27;22.95;;;6.80;99.90;;;;;;4957208;28;87651;-33
2023/01/03 13:05:35;;;;;;;31.15;24.75;;;6.70;99.90;;;;;;4957329;28;90843;-32
2023/01/03 13:08:28;;;;;;;30.15;22.63;;;6.70;99.90;;;;;;4966536;28;92005;-32
2023/01/03 13:11:02;;;;;;;30.33;23.92;;;6.70;99.90;;;;;;4956403;28;90633;-33
2023/01/03 13:13:29;;;;;;;36.22;23.38;;;6.70;99.90;;;;;;4957464;28;88474;-34
2023/01/03 13:15:55;;;;;;;31.13;24.25;;;6.70;99.90;;;;;;4956031;28;90086;-33
2023/01/03 13:18:20;;;;;;;32.30;23.98;;;6.70;99.90;;;;;;4956715;28;89854;-33
2023/01/03 13:20:53;;;;;;;38.53;24.77;;;6.70;99.90;;;;;;4956806;28;89940;-33
2023/01/03 13:23:57;;;;;;;35.17;24.10;;;6.80;99.90;;;;;;4961309;28;88565;-34
2023/01/03 13:26:27;;;;;;;28.70;22.92;;;6.70;99.90;;;;;;4970789;28;90071;-34
2023/01/03 13:29:31;;;;;;;30.80;22.73;;;6.70;99.90;;;;;;4965331;28;89772;-32
2023/01/03 13:32:23;;;;;;;36.00;22.88;;;6.70;99.90;;;;;;4968076;28;89467;-33
2023/01/03 13:34:58;;;;;;;28.17;22.30;;;6.80;99.90;;;;;;4956478;28;90373;-32
2023/01/03 13:37:28;;;;;;;30.10;21.48;;;6.80;99.90;;;;;;4955161;28;90268;-33
2023/01/03 13:40:01;;;;;;;30.05;22.27;;;6.80;99.90;;;;;;4956214;28;90962;-32
2023/01/03 13:42:36;;;;;;;29.63;22.67;;;6.80;99.90;;;;;;4969570;28;90079;-31
2023/01/03 13:45:14;;;;;;;29.88;21.08;;;6.80;99.90;;;;;;4967320;28;89196;-33
2023/01/03 13:47:42;;;;;;;35.17;22.57;;;6.80;99.90;;;;;;4956185;28;90470;-33
2023/01/03 13:50:20;;;;;;;27.55;21.55;;;6.90;99.90;;;;;;4956357;28;89826;-33
2023/01/03 13:52:56;;;;;;;25.13;18.52;;;6.90;99.90;;;;;;4957030;28;89855;-33
2023/01/03 13:55:46;;;;;;;28.58;20.35;;;6.90;99.90;;;;;;4956427;28;88942;-34